sensor_id;sensor_type;location;lat;lon;timestamp;temperature;humidity
16388;DHT22;8303;53.446;9.988;2022-10-03T04:47:12;10.20;1.00
16388;DHT22;8303;53.446;9.988;2022-10-03T04:49:46;10.20;1.00
16388;DHT22;8303;53.446;9.988;2022-10-03T04:52:20;10.20;1.00
16388;DHT22;8303;53.446;9.988;2022-10-03T04:55:01;10.20;1.00
16388;DHT22;8303;53.446;9.988;2022-10-03T04:57:34;10.20;1.00
16388;DHT22;8303;53.446;9.988;2022-10-03T05:00:13;10.20;1.00
16388;DHT22;8303;53.446;9.988;2022-10-03T05:02:46;10.20;1.00
16388;DHT22;8303;53.446;9.988;2022-10-03T05:08:18;10.20;1.00
16388;DHT22;8303;53.446;9.988;2022-10-03T05:10:56;10.20;1.00
16388;DHT22;8303;53.446;9.988;2022-10-03T05:13:34;10.20;1.00
16388;DHT22;8303;53.446;9.988;2022-10-03T05:16:17;10.30;1.00
16388;DHT22;8303;53.446;9.988;2022-10-03T05:18:51;10.20;1.00
16388;DHT22;8303;53.446;9.988;2022-10-03T05:21:29;10.10;1.00
16388;DHT22;8303;53.446;9.988;2022-10-03T05:24:02;10.10;1.00
16388;DHT22;8303;53.446;9.988;2022-10-03T05:26:40;10.10;1.00
16388;DHT22;8303;53.446;9.988;2022-10-03T05:29:16;10.20;1.00
16388;DHT22;8303;53.446;9.988;2022-10-03T05:31:50;10.20;1.00
16388;DHT22;8303;53.446;9.988;2022-10-03T05:34:33;10.20;1.00
16388;DHT22;8303;53.446;9.988;2022-10-03T05:37:25;10.10;1.00
16388;DHT22;8303;53.446;9.988;2022-10-03T05:40:01;10.20;1.00
16388;DHT22;8303;53.446;9.988;2022-10-03T05:42:35;10.20;1.00
16388;DHT22;8303;53.446;9.988;2022-10-03T05:45:06;10.30;1.00
16388;DHT22;8303;53.446;9.988;2022-10-03T05:47:50;10.30;1.00
16388;DHT22;8303;53.446;9.988;2022-10-03T05:50:56;10.30;1.00
16388;DHT22;8303;53.446;9.988;2022-10-03T06:00:07;10.40;1.00
16388;DHT22;8303;53.446;9.988;2022-10-03T06:02:51;10.40;1.00
16388;DHT22;8303;53.446;9.988;2022-10-03T06:05:42;10.40;1.00
16388;DHT22;8303;53.446;9.988;2022-10-03T06:08:46;10.50;1.00
16388;DHT22;8303;53.446;9.988;2022-10-03T06:11:26;10.60;1.00
16388;DHT22;8303;53.446;9.988;2022-10-03T06:14:35;10.60;1.00
16388;DHT22;8303;53.446;9.988;2022-10-03T06:20:15;10.80;1.00
16388;DHT22;8303;53.446;9.988;2022-10-03T06:23:14;10.80;1.00
16388;DHT22;8303;53.446;9.988;2022-10-03T06:26:18;10.90;1.00
16388;DHT22;8303;53.446;9.988;2022-10-03T06:32:26;11.10;1.00
16388;DHT22;8303;53.446;9.988;2022-10-03T06:35:31;11.20;1.00
16388;DHT22;8303;53.446;9.988;2022-10-03T06:38:26;11.30;1.00
16388;DHT22;8303;53.446;9.988;2022-10-03T06:44:26;11.40;99.90
16388;DHT22;8303;53.446;9.988;2022-10-03T06:47:27;11.60;99.90
16388;DHT22;8303;53.446;9.988;2022-10-03T06:53:20;11.70;99.90
16388;DHT22;8303;53.446;9.988;2022-10-03T06:56:09;11.90;99.90
16388;DHT22;8303;53.446;9.988;2022-10-03T07:02:10;12.10;99.90
16388;DHT22;8303;53.446;9.988;2022-10-03T07:08:35;12.30;18.90
16388;DHT22;8303;53.446;9.988;2022-10-03T07:11:28;12.30;1.00
16388;DHT22;8303;53.446;9.988;2022-10-03T07:14:28;12.40;1.00
16388;DHT22;8303;53.446;9.988;2022-10-03T07:17:26;12.30;1.00
16388;DHT22;8303;53.446;9.988;2022-10-03T07:20:29;12.30;1.00
16388;DHT22;8303;53.446;9.988;2022-10-03T07:32:20;12.40;1.00
16388;DHT22;8303;53.446;9.988;2022-10-03T07:35:23;12.20;1.00
16388;DHT22;8303;53.446;9.988;2022-10-03T07:44:55;12.20;17.90
16388;DHT22;8303;53.446;9.988;2022-10-03T07:47:59;12.40;26.30
16388;DHT22;8303;53.446;9.988;2022-10-03T07:50:56;12.60;1.00
16388;DHT22;8303;53.446;9.988;2022-10-03T07:53:47;12.70;1.00
16388;DHT22;8303;53.446;9.988;2022-10-03T07:56:34;12.80;1.00
16388;DHT22;8303;53.446;9.988;2022-10-03T08:02:14;13.10;1.00
16388;DHT22;8303;53.446;9.988;2022-10-03T08:05:10;13.40;1.00
16388;DHT22;8303;53.446;9.988;2022-10-03T08:08:07;13.50;1.00
16388;DHT22;8303;53.446;9.988;2022-10-03T08:11:07;13.40;1.00
16388;DHT22;8303;53.446;9.988;2022-10-03T08:13:53;13.50;1.00
16388;DHT22;8303;53.446;9.988;2022-10-03T08:16:47;13.50;1.00
16388;DHT22;8303;53.446;9.988;2022-10-03T08:19:43;13.60;1.00
16388;DHT22;8303;53.446;9.988;2022-10-03T08:22:24;13.80;1.00
16388;DHT22;8303;53.446;9.988;2022-10-03T08:25:11;13.90;1.00
16388;DHT22;8303;53.446;9.988;2022-10-03T08:28:01;14.00;1.00
16388;DHT22;8303;53.446;9.988;2022-10-03T08:30:46;14.00;1.00
16388;DHT22;8303;53.446;9.988;2022-10-03T08:36:51;14.20;1.00
16388;DHT22;8303;53.446;9.988;2022-10-03T08:39:45;14.30;1.00
16388;DHT22;8303;53.446;9.988;2022-10-03T08:43:05;14.30;99.90
16388;DHT22;8303;53.446;9.988;2022-10-03T08:45:48;14.60;99.90
16388;DHT22;8303;53.446;9.988;2022-10-03T08:48:41;14.70;99.90
16388;DHT22;8303;53.446;9.988;2022-10-03T08:51:39;14.80;99.90
16388;DHT22;8303;53.446;9.988;2022-10-03T08:54:34;14.90;99.90
16388;DHT22;8303;53.446;9.988;2022-10-03T08:57:14;15.30;99.90
16388;DHT22;8303;53.446;9.988;2022-10-03T09:00:04;15.30;99.90
16388;DHT22;8303;53.446;9.988;2022-10-03T09:06:08;15.10;99.90
16388;DHT22;8303;53.446;9.988;2022-10-03T09:09:12;15.10;99.90
16388;DHT22;8303;53.446;9.988;2022-10-03T09:15:01;15.10;99.90
16388;DHT22;8303;53.446;9.988;2022-10-03T09:17:57;14.90;99.90
16388;DHT22;8303;53.446;9.988;2022-10-03T09:20:51;14.90;99.90
16388;DHT22;8303;53.446;9.988;2022-10-03T09:23:52;14.90;99.90
16388;DHT22;8303;53.446;9.988;2022-10-03T09:26:47;15.10;99.90
16388;DHT22;8303;53.446;9.988;2022-10-03T09:29:38;15.30;99.90
16388;DHT22;8303;53.446;9.988;2022-10-03T09:35:45;15.50;99.90
16388;DHT22;8303;53.446;9.988;2022-10-03T09:38:47;15.50;99.90
16388;DHT22;8303;53.446;9.988;2022-10-03T09:44:34;15.50;99.90
16388;DHT22;8303;53.446;9.988;2022-10-03T09:47:38;15.60;99.90
16388;DHT22;8303;53.446;9.988;2022-10-03T10:00:19;15.80;99.90
16388;DHT22;8303;53.446;9.988;2022-10-03T10:03:15;15.80;99.90
16388;DHT22;8303;53.446;9.988;2022-10-03T10:15:12;15.80;99.90
16388;DHT22;8303;53.446;9.988;2022-10-03T10:18:06;15.80;99.90
16388;DHT22;8303;53.446;9.988;2022-10-03T10:24:05;16.00;99.90
16388;DHT22;8303;53.446;9.988;2022-10-03T10:39:30;15.80;99.90
16388;DHT22;8303;53.446;9.988;2022-10-03T10:45:23;14.90;1.00
16388;DHT22;8303;53.446;9.988;2022-10-03T10:57:46;14.90;1.00
16388;DHT22;8303;53.446;9.988;2022-10-03T11:00:38;15.10;1.00
16388;DHT22;8303;53.446;9.988;2022-10-03T11:09:45;15.70;99.90
16388;DHT22;8303;53.446;9.988;2022-10-03T11:19:07;15.40;1.00
16388;DHT22;8303;53.446;9.988;2022-10-03T11:25:16;15.40;1.00
16388;DHT22;8303;53.446;9.988;2022-10-03T11:31:39;16.20;99.90
16388;DHT22;8303;53.446;9.988;2022-10-03T11:37:37;16.30;99.90
16388;DHT22;8303;53.446;9.988;2022-10-03T11:40:17;16.30;99.90
16388;DHT22;8303;53.446;9.988;2022-10-03T11:42:55;16.30;99.90
16388;DHT22;8303;53.446;9.988;2022-10-03T11:45:27;16.30;99.90
16388;DHT22;8303;53.446;9.988;2022-10-03T11:48:23;16.00;99.90
16388;DHT22;8303;53.446;9.988;2022-10-03T11:51:01;16.20;99.90
16388;DHT22;8303;53.446;9.988;2022-10-03T11:53:38;16.10;99.90
16388;DHT22;8303;53.446;9.988;2022-10-03T11:56:24;15.90;99.90
16388;DHT22;8303;53.446;9.988;2022-10-03T11:59:05;15.70;99.90
16388;DHT22;8303;53.446;9.988;2022-10-03T12:01:53;15.60;99.90
16388;DHT22;8303;53.446;9.988;2022-10-03T12:04:30;15.60;99.90
16388;DHT22;8303;53.446;9.988;2022-10-03T12:07:07;15.60;99.90
16388;DHT22;8303;53.446;9.988;2022-10-03T12:10:00;15.70;99.90
16388;DHT22;8303;53.446;9.988;2022-10-03T12:12:34;15.80;99.90
16388;DHT22;8303;53.446;9.988;2022-10-03T12:15:22;15.90;99.90
16388;DHT22;8303;53.446;9.988;2022-10-03T12:17:57;15.90;99.90
16388;DHT22;8303;53.446;9.988;2022-10-03T12:20:36;15.90;99.90
16388;DHT22;8303;53.446;9.988;2022-10-03T12:23:21;16.00;99.90
16388;DHT22;8303;53.446;9.988;2022-10-03T12:25:52;16.10;99.90
16388;DHT22;8303;53.446;9.988;2022-10-03T12:28:26;16.20;99.90
16388;DHT22;8303;53.446;9.988;2022-10-03T12:30:59;16.40;99.90
16388;DHT22;8303;53.446;9.988;2022-10-03T12:33:43;16.40;99.90
16388;DHT22;8303;53.446;9.988;2022-10-03T12:36:16;16.40;99.90
16388;DHT22;8303;53.446;9.988;2022-10-03T12:39:04;16.10;99.90
16388;DHT22;8303;53.446;9.988;2022-10-03T12:41:55;15.80;99.90
16388;DHT22;8303;53.446;9.988;2022-10-03T12:44:37;15.70;99.90
16388;DHT22;8303;53.446;9.988;2022-10-03T12:47:27;15.70;99.90
16388;DHT22;8303;53.446;9.988;2022-10-03T12:50:10;15.60;99.90
16388;DHT22;8303;53.446;9.988;2022-10-03T12:52:47;15.30;99.90
16388;DHT22;8303;53.446;9.988;2022-10-03T12:55:26;15.20;1.00
16388;DHT22;8303;53.446;9.988;2022-10-03T12:58:11;15.20;1.00
16388;DHT22;8303;53.446;9.988;2022-10-03T13:00:55;15.20;1.00
16388;DHT22;8303;53.446;9.988;2022-10-03T13:03:32;15.40;99.90
16388;DHT22;8303;53.446;9.988;2022-10-03T13:09:18;15.60;99.90
16388;DHT22;8303;53.446;9.988;2022-10-03T13:11:57;15.70;99.90
16388;DHT22;8303;53.446;9.988;2022-10-03T13:14:41;15.80;99.90
16388;DHT22;8303;53.446;9.988;2022-10-03T13:17:19;15.90;99.90
16388;DHT22;8303;53.446;9.988;2022-10-03T13:19:55;15.90;99.90
16388;DHT22;8303;53.446;9.988;2022-10-03T13:22:32;16.10;99.90
16388;DHT22;8303;53.446;9.988;2022-10-03T13:25:04;16.20;99.90
16388;DHT22;8303;53.446;9.988;2022-10-03T13:27:41;16.10;99.90
16388;DHT22;8303;53.446;9.988;2022-10-03T13:30:17;16.20;99.90
16388;DHT22;8303;53.446;9.988;2022-10-03T13:32:49;16.40;99.90
16388;DHT22;8303;53.446;9.988;2022-10-03T13:35:27;16.60;99.90
16388;DHT22;8303;53.446;9.988;2022-10-03T13:38:28;16.60;99.90
16388;DHT22;8303;53.446;9.988;2022-10-03T13:41:10;16.50;99.90
16388;DHT22;8303;53.446;9.988;2022-10-03T13:43:45;16.40;99.90
16388;DHT22;8303;53.446;9.988;2022-10-03T13:46:16;16.50;99.90
16388;DHT22;8303;53.446;9.988;2022-10-03T13:48:51;16.50;99.90
16388;DHT22;8303;53.446;9.988;2022-10-03T13:51:27;16.50;99.90
16388;DHT22;8303;53.446;9.988;2022-10-03T13:54:02;16.60;99.90
16388;DHT22;8303;53.446;9.988;2022-10-03T13:56:50;16.70;99.90
16388;DHT22;8303;53.446;9.988;2022-10-03T13:59:38;16.70;99.90
16388;DHT22;8303;53.446;9.988;2022-10-03T14:02:21;16.70;99.90
16388;DHT22;8303;53.446;9.988;2022-10-03T14:05:01;16.90;99.90
16388;DHT22;8303;53.446;9.988;2022-10-03T14:07:41;16.90;99.90
16388;DHT22;8303;53.446;9.988;2022-10-03T14:10:27;16.80;99.90
16388;DHT22;8303;53.446;9.988;2022-10-03T14:13:09;16.80;99.90
16388;DHT22;8303;53.446;9.988;2022-10-03T14:15:48;16.80;99.90
16388;DHT22;8303;53.446;9.988;2022-10-03T14:24:07;17.30;99.90
16388;DHT22;8303;53.446;9.988;2022-10-03T14:26:44;17.60;69.20
16388;DHT22;8303;53.446;9.988;2022-10-03T14:29:20;17.40;97.00
16388;DHT22;8303;53.446;9.988;2022-10-03T14:31:56;17.10;99.90
16388;DHT22;8303;53.446;9.988;2022-10-03T14:34:34;16.80;99.90
16388;DHT22;8303;53.446;9.988;2022-10-03T14:37:17;16.50;99.90
16388;DHT22;8303;53.446;9.988;2022-10-03T14:39:55;16.40;99.90
16388;DHT22;8303;53.446;9.988;2022-10-03T14:42:38;16.20;99.90
16388;DHT22;8303;53.446;9.988;2022-10-03T14:45:11;16.20;99.90
16388;DHT22;8303;53.446;9.988;2022-10-03T14:47:42;16.10;99.90
16388;DHT22;8303;53.446;9.988;2022-10-03T14:50:16;16.10;99.90
16388;DHT22;8303;53.446;9.988;2022-10-03T14:52:46;16.00;99.90
16388;DHT22;8303;53.446;9.988;2022-10-03T14:55:18;16.00;99.90
16388;DHT22;8303;53.446;9.988;2022-10-03T14:57:48;15.90;99.90
16388;DHT22;8303;53.446;9.988;2022-10-03T15:00:25;15.90;99.90
16388;DHT22;8303;53.446;9.988;2022-10-03T15:02:54;15.90;99.90
16388;DHT22;8303;53.446;9.988;2022-10-03T15:05:32;15.80;99.90
16388;DHT22;8303;53.446;9.988;2022-10-03T15:08:01;15.80;99.90
16388;DHT22;8303;53.446;9.988;2022-10-03T15:10:30;15.70;99.90
16388;DHT22;8303;53.446;9.988;2022-10-03T15:13:02;15.70;99.90
16388;DHT22;8303;53.446;9.988;2022-10-03T15:15:32;15.70;99.90
16388;DHT22;8303;53.446;9.988;2022-10-03T15:18:03;15.70;99.90
16388;DHT22;8303;53.446;9.988;2022-10-03T15:20:34;15.70;99.90
16388;DHT22;8303;53.446;9.988;2022-10-03T15:23:05;15.70;99.90
16388;DHT22;8303;53.446;9.988;2022-10-03T15:25:34;15.70;99.90
16388;DHT22;8303;53.446;9.988;2022-10-03T15:28:04;15.70;99.90
16388;DHT22;8303;53.446;9.988;2022-10-03T15:30:35;15.70;99.90
16388;DHT22;8303;53.446;9.988;2022-10-03T15:33:10;15.70;99.90
16388;DHT22;8303;53.446;9.988;2022-10-03T15:35:40;15.70;99.90
16388;DHT22;8303;53.446;9.988;2022-10-03T15:38:14;15.70;99.90
16388;DHT22;8303;53.446;9.988;2022-10-03T15:40:47;15.60;99.90
16388;DHT22;8303;53.446;9.988;2022-10-03T15:43:29;15.50;99.90
16388;DHT22;8303;53.446;9.988;2022-10-03T15:45:57;15.60;99.90
16388;DHT22;8303;53.446;9.988;2022-10-03T15:48:27;15.60;99.90
16388;DHT22;8303;53.446;9.988;2022-10-03T15:50:56;15.60;99.90
16388;DHT22;8303;53.446;9.988;2022-10-03T15:53:25;15.50;99.90
16388;DHT22;8303;53.446;9.988;2022-10-03T15:55:59;15.40;99.90
16388;DHT22;8303;53.446;9.988;2022-10-03T15:58:28;15.40;99.90
16388;DHT22;8303;53.446;9.988;2022-10-03T16:01:04;15.40;99.90
16388;DHT22;8303;53.446;9.988;2022-10-03T16:03:39;15.30;99.90
16388;DHT22;8303;53.446;9.988;2022-10-03T16:06:10;15.30;99.90
16388;DHT22;8303;53.446;9.988;2022-10-03T16:08:48;15.20;99.90
16388;DHT22;8303;53.446;9.988;2022-10-03T16:11:20;15.30;99.90
16388;DHT22;8303;53.446;9.988;2022-10-03T16:13:58;15.20;99.90
16388;DHT22;8303;53.446;9.988;2022-10-03T16:16:35;15.20;99.90
16388;DHT22;8303;53.446;9.988;2022-10-03T16:19:25;15.20;1.00
16388;DHT22;8303;53.446;9.988;2022-10-03T16:21:57;15.00;1.00
16388;DHT22;8303;53.446;9.988;2022-10-03T16:24:32;15.00;1.00
16388;DHT22;8303;53.446;9.988;2022-10-03T16:27:09;14.80;1.00
16388;DHT22;8303;53.446;9.988;2022-10-03T16:29:43;14.80;1.00
16388;DHT22;8303;53.446;9.988;2022-10-03T16:32:16;14.80;1.00
16388;DHT22;8303;53.446;9.988;2022-10-03T16:34:45;14.70;1.00
16388;DHT22;8303;53.446;9.988;2022-10-03T16:37:17;14.60;1.00
16388;DHT22;8303;53.446;9.988;2022-10-03T16:39:53;14.50;1.00
16388;DHT22;8303;53.446;9.988;2022-10-03T16:42:22;14.50;1.00
16388;DHT22;8303;53.446;9.988;2022-10-03T16:44:52;14.40;1.00
16388;DHT22;8303;53.446;9.988;2022-10-03T16:47:32;14.40;1.00
16388;DHT22;8303;53.446;9.988;2022-10-03T16:50:03;14.40;1.00
16388;DHT22;8303;53.446;9.988;2022-10-03T16:52:54;14.30;1.00
16388;DHT22;8303;53.446;9.988;2022-10-03T16:55:27;14.20;1.00
16388;DHT22;8303;53.446;9.988;2022-10-03T16:57:58;14.20;1.00
16388;DHT22;8303;53.446;9.988;2022-10-03T17:00:31;14.10;1.00
16388;DHT22;8303;53.446;9.988;2022-10-03T17:03:04;14.00;1.00
16388;DHT22;8303;53.446;9.988;2022-10-03T17:05:39;14.00;1.00
16388;DHT22;8303;53.446;9.988;2022-10-03T17:08:09;14.00;1.00
16388;DHT22;8303;53.446;9.988;2022-10-03T17:10:39;14.00;1.90
16388;DHT22;8303;53.446;9.988;2022-10-03T17:13:11;14.00;3.20
16388;DHT22;8303;53.446;9.988;2022-10-03T17:15:46;14.00;1.00
16388;DHT22;8303;53.446;9.988;2022-10-03T17:18:20;14.00;1.00
16388;DHT22;8303;53.446;9.988;2022-10-03T17:20:52;14.00;1.00
16388;DHT22;8303;53.446;9.988;2022-10-03T17:23:26;14.00;1.90
16388;DHT22;8303;53.446;9.988;2022-10-03T17:26:05;13.90;9.80
16388;DHT22;8303;53.446;9.988;2022-10-03T17:28:38;13.80;37.60
16388;DHT22;8303;53.446;9.988;2022-10-03T17:31:27;13.80;65.80
16388;DHT22;8303;53.446;9.988;2022-10-03T17:34:02;13.80;67.90
16388;DHT22;8303;53.446;9.988;2022-10-03T17:39:40;13.70;99.90
16388;DHT22;8303;53.446;9.988;2022-10-03T17:42:19;13.60;99.90
16388;DHT22;8303;53.446;9.988;2022-10-03T17:44:56;13.50;99.90
16388;DHT22;8303;53.446;9.988;2022-10-03T17:47:32;13.50;99.90
16388;DHT22;8303;53.446;9.988;2022-10-03T17:50:08;13.50;99.90
16388;DHT22;8303;53.446;9.988;2022-10-03T17:52:41;13.50;99.90
16388;DHT22;8303;53.446;9.988;2022-10-03T17:55:15;13.50;99.90
16388;DHT22;8303;53.446;9.988;2022-10-03T17:57:46;13.40;99.90
16388;DHT22;8303;53.446;9.988;2022-10-03T18:00:18;13.50;99.90
16388;DHT22;8303;53.446;9.988;2022-10-03T18:02:53;13.50;99.90
16388;DHT22;8303;53.446;9.988;2022-10-03T18:05:24;13.50;99.90
16388;DHT22;8303;53.446;9.988;2022-10-03T18:07:54;13.50;99.90
16388;DHT22;8303;53.446;9.988;2022-10-03T18:10:25;13.50;99.90
16388;DHT22;8303;53.446;9.988;2022-10-03T18:12:56;13.40;99.90
16388;DHT22;8303;53.446;9.988;2022-10-03T18:15:40;13.40;99.90
16388;DHT22;8303;53.446;9.988;2022-10-03T18:18:37;13.30;99.90
16388;DHT22;8303;53.446;9.988;2022-10-03T18:21:16;13.30;99.90
16388;DHT22;8303;53.446;9.988;2022-10-03T18:23:56;13.40;99.90
16388;DHT22;8303;53.446;9.988;2022-10-03T18:26:32;13.30;99.90
16388;DHT22;8303;53.446;9.988;2022-10-03T18:29:09;13.30;99.90
16388;DHT22;8303;53.446;9.988;2022-10-03T18:31:42;13.30;99.90
16388;DHT22;8303;53.446;9.988;2022-10-03T18:34:17;13.30;99.90
16388;DHT22;8303;53.446;9.988;2022-10-03T18:36:47;13.30;99.90
16388;DHT22;8303;53.446;9.988;2022-10-03T18:39:21;13.30;99.90
16388;DHT22;8303;53.446;9.988;2022-10-03T18:41:53;13.20;99.90
16388;DHT22;8303;53.446;9.988;2022-10-03T18:44:24;13.20;99.90
16388;DHT22;8303;53.446;9.988;2022-10-03T18:46:58;13.10;99.90
16388;DHT22;8303;53.446;9.988;2022-10-03T18:49:30;13.10;99.90
16388;DHT22;8303;53.446;9.988;2022-10-03T18:52:04;13.10;99.90
16388;DHT22;8303;53.446;9.988;2022-10-03T18:54:45;13.00;99.90
16388;DHT22;8303;53.446;9.988;2022-10-03T18:57:19;13.00;99.90
16388;DHT22;8303;53.446;9.988;2022-10-03T18:59:52;12.90;99.90
16388;DHT22;8303;53.446;9.988;2022-10-03T19:02:25;12.90;99.90
16388;DHT22;8303;53.446;9.988;2022-10-03T19:05:01;12.90;99.90
16388;DHT22;8303;53.446;9.988;2022-10-03T19:07:33;12.90;99.90
16388;DHT22;8303;53.446;9.988;2022-10-03T19:13:09;12.80;99.90
16388;DHT22;8303;53.446;9.988;2022-10-03T19:15:48;12.80;99.90
16388;DHT22;8303;53.446;9.988;2022-10-03T19:18:21;12.80;99.90
16388;DHT22;8303;53.446;9.988;2022-10-03T19:20:53;12.70;99.90
16388;DHT22;8303;53.446;9.988;2022-10-03T19:23:24;12.80;99.90
16388;DHT22;8303;53.446;9.988;2022-10-03T19:25:59;12.70;99.90
16388;DHT22;8303;53.446;9.988;2022-10-03T19:28:29;12.70;99.90
16388;DHT22;8303;53.446;9.988;2022-10-03T19:31:01;12.70;99.90
16388;DHT22;8303;53.446;9.988;2022-10-03T19:33:32;12.60;99.90
16388;DHT22;8303;53.446;9.988;2022-10-03T19:36:02;12.60;99.90
16388;DHT22;8303;53.446;9.988;2022-10-03T19:38:34;12.60;99.90
16388;DHT22;8303;53.446;9.988;2022-10-03T19:41:12;12.60;99.90
16388;DHT22;8303;53.446;9.988;2022-10-03T19:43:42;12.50;99.90
16388;DHT22;8303;53.446;9.988;2022-10-03T19:46:33;12.50;99.90
16388;DHT22;8303;53.446;9.988;2022-10-03T19:49:24;12.50;99.90
16388;DHT22;8303;53.446;9.988;2022-10-03T19:54:58;12.50;1.00
16388;DHT22;8303;53.446;9.988;2022-10-03T19:57:37;12.60;1.00
16388;DHT22;8303;53.446;9.988;2022-10-03T20:00:18;12.50;1.00
16388;DHT22;8303;53.446;9.988;2022-10-03T20:02:53;12.50;1.00
16388;DHT22;8303;53.446;9.988;2022-10-03T20:05:24;12.50;1.00
16388;DHT22;8303;53.446;9.988;2022-10-03T20:07:58;12.50;1.00
16388;DHT22;8303;53.446;9.988;2022-10-03T20:10:35;12.40;1.00
16388;DHT22;8303;53.446;9.988;2022-10-03T20:13:07;12.40;1.00
16388;DHT22;8303;53.446;9.988;2022-10-03T20:15:40;12.30;1.00
16388;DHT22;8303;53.446;9.988;2022-10-03T20:18:17;12.30;1.00
16388;DHT22;8303;53.446;9.988;2022-10-03T20:20:48;12.30;1.00
16388;DHT22;8303;53.446;9.988;2022-10-03T20:23:18;12.20;1.00
16388;DHT22;8303;53.446;9.988;2022-10-03T20:25:51;12.20;1.00
16388;DHT22;8303;53.446;9.988;2022-10-03T20:28:24;12.10;1.00
